Time;durP1;ratioP1;P1;durP2;ratioP2;P2;SDS_P1;SDS_P2;PMS_P1;PMS_P2;Temp;Humidity;BMP_temperature;BMP_pressure;BME280_temperature;BME280_humidity;BME280_pressure;Samples;Min_cycle;Max_cycle;Signal;HPM_P1;HPM_P2
2022/06/01 00:03:54;;;;;;;5.97;4.17;;;;;;;14.59;62.67;100415.85;3423398;80;20936;-79
2022/06/01 00:08:45;;;;;;;3.33;3.08;;;;;;;14.63;62.65;100373.13;3496342;80;21004;-79
2022/06/01 00:13:37;;;;;;;2.87;2.67;;;;;;;14.70;62.95;100363.47;3424826;80;21618;-79
2022/06/01 00:18:28;;;;;;;3.80;3.45;;;;;;;14.76;62.58;100375.67;3445158;80;21269;-80
2022/06/01 00:23:20;;;;;;;3.87;3.47;;;;;;;14.82;63.00;100371.25;3445481;80;20947;-79
2022/06/01 00:28:13;;;;;;;2.85;2.65;;;;;;;14.84;63.14;100398.31;3446405;80;21450;-79
2022/06/01 00:33:04;;;;;;;4.40;3.00;;;;;;;14.85;62.96;100423.59;3426993;80;20987;-79
2022/06/01 00:37:55;;;;;;;5.28;3.05;;;;;;;14.87;62.94;100398.27;3417560;80;21026;-81
2022/06/01 00:42:51;;;;;;;4.12;3.75;;;;;;;14.83;64.45;100370.84;3439068;80;20978;-80
2022/06/01 00:47:42;;;;;;;5.90;3.90;;;;;;;14.56;66.04;100295.93;3486654;80;21248;-80
2022/06/01 00:52:38;;;;;;;3.70;2.90;;;;;;;14.35;67.68;100291.27;3453961;80;21037;-79
2022/06/01 00:57:29;;;;;;;4.33;3.12;;;;;;;14.21;68.09;100282.62;3483457;80;21279;-80
2022/06/01 01:02:20;;;;;;;2.95;2.75;;;;;;;14.17;68.74;100293.98;3445304;80;20952;-80
2022/06/01 01:07:12;;;;;;;3.45;3.15;;;;;;;14.13;69.28;100305.31;3456390;81;21019;-79
2022/06/01 01:12:08;;;;;;;3.37;3.17;;;;;;;14.09;69.83;100344.55;3433995;80;21045;-79
2022/06/01 01:16:59;;;;;;;5.15;4.25;;;;;;;14.09;70.36;100390.30;3446883;81;22042;-79
2022/06/01 01:22:07;;;;;;;5.12;4.62;;;;;;;14.00;70.82;100390.75;3435832;80;20930;-79
2022/06/01 01:26:57;;;;;;;7.28;5.25;;;;;;;13.94;70.54;100347.66;3556298;78;21582;-79
2022/06/01 01:31:48;;;;;;;4.90;4.50;;;;;;;13.92;70.98;100350.27;3531420;79;20974;-79
2022/06/01 01:36:45;;;;;;;6.50;5.20;;;;;;;13.88;71.22;100338.09;3515491;78;21070;-80
2022/06/01 01:41:42;;;;;;;5.40;5.00;;;;;;;13.87;71.52;100337.64;3574305;78;26864;-79
2022/06/01 01:46:34;;;;;;;5.70;5.15;;;;;;;13.85;71.81;100328.94;3564461;78;20950;-79
2022/06/01 01:51:29;;;;;;;5.62;5.12;;;;;;;13.81;72.02;100316.32;3549502;77;21150;-79
2022/06/01 01:57:00;;;;;;;5.70;5.20;;;;;;;13.76;72.35;100316.77;3548544;77;21417;-79
2022/06/01 02:02:12;;;;;;;7.40;5.42;;;;;;;13.71;72.50;100311.53;3513004;78;21049;-79
2022/06/01 02:07:06;;;;;;;6.33;5.22;;;;;;;13.71;72.98;100305.45;3548840;78;21455;-79
2022/06/01 02:17:12;;;;;;;5.03;4.62;;;;;;;13.64;73.04;100295.89;3554011;78;20903;-79
2022/06/01 02:22:05;;;;;;;5.35;4.85;;;;;;;13.60;73.31;100297.64;3528901;78;21492;-79
2022/06/01 02:26:58;;;;;;;5.70;5.20;;;;;;;13.49;73.23;100292.88;3491406;79;21054;-79
2022/06/01 02:31:50;;;;;;;8.28;5.50;;;;;;;13.44;73.34;100297.24;3531422;78;22100;-79
2022/06/01 02:36:43;;;;;;;5.65;4.95;;;;;;;13.34;73.55;100295.95;3537152;78;21021;-79
2022/06/01 02:46:45;;;;;;;5.60;5.10;;;;;;;13.38;74.14;100282.87;3524791;78;22058;-79
2022/06/01 02:51:36;;;;;;;5.70;5.17;;;;;;;13.39;74.21;100273.73;3540300;78;20946;-79
2022/06/01 02:56:28;;;;;;;6.00;5.45;;;;;;;13.37;74.11;100269.40;3575602;78;20967;-79
2022/06/01 03:01:19;;;;;;;5.75;5.25;;;;;;;13.33;74.15;100264.62;3516373;77;20965;-79
2022/06/01 03:06:10;;;;;;;6.05;5.53;;;;;;;13.30;74.22;100259.36;3559647;78;21012;-79
2022/06/01 03:11:01;;;;;;;5.95;5.45;;;;;;;13.29;74.30;100258.50;3454244;78;20956;-79
2022/06/01 03:15:53;;;;;;;6.47;5.87;;;;;;;13.28;74.49;100251.52;3525574;78;20852;-79
2022/06/01 03:20:45;;;;;;;5.83;5.28;;;;;;;13.27;74.51;100255.02;3534493;79;20954;-79
2022/06/01 03:25:38;;;;;;;5.92;5.50;;;;;;;13.26;74.77;100248.05;3512625;79;20902;-79
2022/06/01 03:30:30;;;;;;;6.37;5.85;;;;;;;13.28;74.88;100245.00;3510613;79;21093;-79
2022/06/01 03:35:26;;;;;;;6.95;5.83;;;;;;;13.30;74.90;100247.16;3562605;78;21624;-79
2022/06/01 03:40:20;;;;;;;6.72;6.22;;;;;;;13.31;74.97;100246.34;3564347;77;20950;-79
2022/06/01 03:50:25;;;;;;;7.35;6.75;;;;;;;13.41;75.12;100242.40;3527680;77;20943;-79
2022/06/01 03:55:16;;;;;;;7.37;6.28;;;;;;;13.42;75.23;100234.56;3543553;78;20897;-79
2022/06/01 04:00:12;;;;;;;5.83;5.30;;;;;;;13.49;75.35;100231.52;3488455;77;21847;-79
2022/06/01 04:05:04;;;;;;;6.00;5.42;;;;;;;13.53;75.54;100233.23;3531035;78;20974;-79
2022/06/01 04:09:56;;;;;;;8.85;6.97;;;;;;;13.58;75.61;100234.54;3608339;78;20962;-79
2022/06/01 04:14:47;;;;;;;7.17;6.58;;;;;;;13.61;75.78;100259.32;3484046;80;21000;-79
2022/06/01 04:19:37;;;;;;;8.85;6.67;;;;;;;13.63;75.93;100253.65;3433823;79;20971;-79
2022/06/01 04:24:32;;;;;;;6.72;6.22;;;;;;;13.66;76.06;100252.34;3408775;80;20982;-79
2022/06/01 04:29:24;;;;;;;7.47;6.95;;;;;;;13.74;76.07;100240.14;3412846;81;20987;-79
2022/06/01 04:34:16;;;;;;;7.55;6.95;;;;;;;13.81;76.15;100230.54;3433657;81;21454;-79
2022/06/01 04:39:07;;;;;;;10.08;7.75;;;;;;;13.84;76.29;100234.02;3414668;80;20928;-79
2022/06/01 04:43:59;;;;;;;9.65;8.80;;;;;;;13.88;76.49;100223.11;3472467;80;20960;-79
2022/06/01 04:48:50;;;;;;;9.15;8.35;;;;;;;13.99;76.55;100227.84;3402733;80;21593;-80
2022/06/01 04:53:45;;;;;;;8.10;7.42;;;;;;;14.06;76.46;100222.14;3442781;80;20959;-79
2022/06/01 04:58:36;;;;;;;9.98;9.08;;;;;;;14.15;76.62;100234.27;3404304;81;20973;-80
2022/06/01 05:03:27;;;;;;;8.98;8.05;;;;;;;14.24;76.75;100236.41;3482735;80;20998;-79
2022/06/01 05:08:18;;;;;;;9.65;8.80;;;;;;;14.35;76.75;100238.97;3428158;81;20963;-79
2022/06/01 05:13:10;;;;;;;11.57;10.15;;;;;;;14.51;76.75;100237.57;3383874;81;20961;-79
2022/06/01 05:18:02;;;;;;;11.88;10.78;;;;;;;14.63;76.46;100233.15;3501455;78;22116;-79
2022/06/01 05:22:52;;;;;;;11.83;10.72;;;;;;;14.77;76.50;100230.85;3542836;78;21742;-79
2022/06/01 05:27:44;;;;;;;12.95;11.85;;;;;;;14.89;76.42;100220.28;3500641;78;21006;-79
2022/06/01 05:32:35;;;;;;;11.53;10.53;;;;;;;15.01;76.49;100231.09;3526157;78;20953;-79
2022/06/01 05:37:26;;;;;;;11.73;10.72;;;;;;;15.03;76.42;100235.88;3508414;78;20916;-80
2022/06/01 05:42:17;;;;;;;11.95;10.95;;;;;;;15.02;76.33;100240.67;3564182;77;20880;-80
2022/06/01 05:47:08;;;;;;;12.40;11.30;;;;;;;15.02;76.17;100236.74;3532452;78;20951;-81
2022/06/01 05:51:59;;;;;;;13.10;12.00;;;;;;;15.09;76.18;100235.80;3509135;77;21496;-79
2022/06/01 05:56:50;;;;;;;12.53;11.45;;;;;;;15.22;76.51;100243.09;3533658;78;21011;-76
2022/06/01 06:01:42;;;;;;;13.70;12.60;;;;;;;15.33;76.41;100246.95;3517375;77;21828;-79
2022/06/01 06:06:33;;;;;;;11.65;10.70;;;;;;;15.51;76.47;100253.30;3512471;78;20970;-79
2022/06/01 06:11:28;;;;;;;11.45;10.48;;;;;;;15.68;76.07;100247.00;3513051;78;21017;-79
2022/06/01 06:16:20;;;;;;;12.82;11.63;;;;;;;15.85;75.86;100253.41;3543521;78;20976;-75
2022/06/01 06:21:11;;;;;;;11.93;10.95;;;;;;;15.95;75.98;100258.94;3528395;79;21425;-80
2022/06/01 06:26:03;;;;;;;11.53;10.55;;;;;;;15.98;75.57;100253.20;3502768;78;21920;-85
2022/06/01 06:30:55;;;;;;;11.28;10.23;;;;;;;16.07;75.37;100249.60;3563676;78;21503;-86
2022/06/01 06:35:46;;;;;;;11.18;10.08;;;;;;;16.07;75.44;100274.52;3490137;78;21017;-83
2022/06/01 06:40:38;;;;;;;12.53;10.25;;;;;;;15.95;75.29;100280.80;3522960;77;21031;-83
2022/06/01 06:45:29;;;;;;;11.68;10.70;;;;;;;15.92;75.25;100271.65;3552049;78;20956;-82
2022/06/01 06:50:22;;;;;;;12.23;11.08;;;;;;;15.81;75.41;100281.41;3490168;78;21015;-82
2022/06/01 06:55:14;;;;;;;11.75;10.65;;;;;;;15.75;75.68;100279.69;3613145;78;20913;-82
2022/06/01 07:00:09;;;;;;;11.73;10.72;;;;;;;15.70;75.63;100267.50;3573294;78;20907;-82
2022/06/01 07:05:00;;;;;;;12.35;11.22;;;;;;;15.67;75.98;100250.48;3530860;78;20951;-82
2022/06/01 07:09:51;;;;;;;10.50;9.53;;;;;;;15.62;76.07;100267.59;3579600;78;20990;-82
2022/06/01 07:14:42;;;;;;;11.22;9.43;;;;;;;15.58;75.95;100285.55;3510878;78;21149;-82
2022/06/01 07:19:33;;;;;;;10.58;9.65;;;;;;;15.53;76.26;100300.00;3551186;78;21201;-82
2022/06/01 07:24:25;;;;;;;11.88;10.78;;;;;;;15.49;76.47;100302.23;3542736;78;21487;-83
2022/06/01 07:29:18;;;;;;;10.70;9.78;;;;;;;15.52;76.37;100306.11;3504206;78;20955;-84
2022/06/01 07:34:10;;;;;;;10.18;9.28;;;;;;;15.51;76.45;100297.84;3552797;78;20965;-82
2022/06/01 07:44:13;;;;;;;11.43;10.40;;;;;;;15.70;76.38;100307.67;3579037;78;21069;-81
2022/06/01 07:49:07;;;;;;;9.58;8.78;;;;;;;15.79;76.27;100293.63;3578377;78;20954;-81
2022/06/01 07:53:58;;;;;;;11.35;10.25;;;;;;;15.83;76.23;100271.77;3499288;78;20955;-76
2022/06/01 07:58:49;;;;;;;9.90;9.00;;;;;;;15.93;76.21;100283.85;3532911;78;21060;-78
2022/06/01 08:03:40;;;;;;;10.05;9.15;;;;;;;16.00;76.24;100282.89;3529370;77;21489;-79
2022/06/01 08:08:32;;;;;;;10.15;9.30;;;;;;;16.05;76.27;100285.92;3550625;77;21477;-83
2022/06/01 08:13:23;;;;;;;10.55;9.65;;;;;;;16.10;76.31;100248.72;3496623;78;21049;-80
2022/06/01 08:18:19;;;;;;;9.93;9.03;;;;;;;16.24;76.33;100266.86;3434385;80;21585;-81
2022/06/01 08:23:11;;;;;;;9.10;8.20;;;;;;;16.24;76.12;100276.05;3429005;81;21041;-79
2022/06/01 08:28:04;;;;;;;8.90;8.00;;;;;;;16.19;75.88;100270.42;3407526;80;21062;-81
2022/06/01 08:32:56;;;;;;;8.08;7.47;;;;;;;16.21;75.92;100238.94;3468826;79;22227;-81
2022/06/01 08:37:48;;;;;;;8.38;7.67;;;;;;;16.31;76.04;100250.16;3589229;77;20950;-82
2022/06/01 08:42:43;;;;;;;8.28;7.58;;;;;;;16.67;74.89;100257.95;3426439;78;20954;-81
2022/06/01 08:47:38;;;;;;;8.55;7.80;;;;;;;17.19;74.54;100255.36;3561696;77;20971;-83
2022/06/01 08:52:30;;;;;;;7.17;6.47;;;;;;;17.52;73.92;100268.34;3530962;78;21351;-84
2022/06/01 08:57:41;;;;;;;5.37;5.00;;;;;;;17.94;74.01;100291.23;3490458;78;21003;-81
2022/06/01 09:03:07;;;;;;;5.00;4.60;;;;;;;18.46;72.17;100282.25;3566953;77;21053;-82
2022/06/01 09:08:37;;;;;;;4.25;3.95;;;;;;;18.89;70.49;100278.64;3545292;78;21409;-84
2022/06/01 09:13:58;;;;;;;4.03;3.72;;;;;;;18.70;70.35;100279.48;3561105;78;20973;-81
2022/06/01 09:18:53;;;;;;;3.98;3.67;;;;;;;18.57;70.58;100282.86;3553961;77;20993;-81
2022/06/01 09:23:47;;;;;;;3.87;3.58;;;;;;;18.53;70.07;100281.20;3533998;78;20950;-86
2022/06/01 09:28:44;;;;;;;4.10;3.72;;;;;;;18.57;69.45;100278.91;3504771;77;35960;-84
2022/06/01 09:33:40;;;;;;;3.42;3.20;;;;;;;18.81;69.80;100270.90;3565651;78;20951;-85
2022/06/01 09:38:49;;;;;;;3.37;3.07;;;;;;;18.97;68.24;100268.76;3527197;78;22059;-83
2022/06/01 09:43:45;;;;;;;3.35;3.05;;;;;;;18.94;68.04;100263.59;3549953;79;21719;-87
2022/06/01 09:48:41;;;;;;;3.73;3.43;;;;;;;18.86;67.71;100269.48;3559451;78;20908;-84
2022/06/01 09:53:38;;;;;;;3.50;3.20;;;;;;;18.73;67.60;100282.52;3569300;78;21424;-85
2022/06/01 10:09:11;;;;;;;4.33;3.98;;;;;;;18.78;67.16;100283.24;3595123;78;21902;-83
2022/06/01 10:14:25;;;;;;;5.15;4.60;;;;;;;18.85;67.01;100288.81;3561094;78;21552;-82
2022/06/01 10:19:22;;;;;;;4.60;4.12;;;;;;;19.58;65.77;100302.34;3568750;78;20986;-83
2022/06/01 10:24:21;;;;;;;4.33;3.92;;;;;;;20.37;64.91;100298.37;3576631;78;20966;-84
2022/06/01 10:29:17;;;;;;;3.98;3.58;;;;;;;21.46;62.86;100292.28;3566992;78;21002;-84
2022/06/01 10:34:29;;;;;;;3.98;3.37;;;;;;;22.80;60.52;100288.61;3579176;78;21067;-81
2022/06/01 10:39:53;;;;;;;4.08;3.77;;;;;;;23.31;59.53;100289.64;3572913;78;20912;-85
2022/06/01 10:45:01;;;;;;;3.50;3.20;;;;;;;24.57;57.76;100279.14;3521769;78;20986;-84
2022/06/01 10:50:16;;;;;;;4.85;3.27;;;;;;;25.30;55.98;100271.98;3506593;79;21544;-84
2022/06/01 10:55:15;;;;;;;2.67;2.50;;;;;;;26.10;53.81;100277.10;3556559;79;20943;-84
2022/06/01 11:00:12;;;;;;;4.17;2.37;;;;;;;26.90;52.08;100277.97;3550528;78;21131;-85
2022/06/01 11:05:27;;;;;;;4.65;2.83;;;;;;;26.76;52.15;100272.58;3538937;78;20970;-82
2022/06/01 11:10:45;;;;;;;1.70;1.60;;;;;;;26.52;51.74;100271.64;3558394;77;21484;-81
2022/06/01 11:15:44;;;;;;;2.72;2.50;;;;;;;25.72;51.09;100276.02;3592863;77;20958;-83
2022/06/01 11:21:10;;;;;;;2.35;1.92;;;;;;;25.02;51.85;100277.36;3571859;78;20959;-82
2022/06/01 11:26:36;;;;;;;4.83;2.25;;;;;;;24.65;51.14;100271.19;3458696;80;21215;-86
2022/06/01 11:31:29;;;;;;;2.17;2.00;;;;;;;24.46;51.73;100280.95;3443306;80;20938;-83
2022/06/01 11:36:44;;;;;;;2.45;2.30;;;;;;;23.70;52.64;100281.73;3387683;79;20959;-84
2022/06/01 11:41:39;;;;;;;3.25;1.95;;;;;;;23.91;53.45;100264.02;3411912;82;21331;-84
2022/06/01 11:46:44;;;;;;;3.85;2.72;;;;;;;24.45;52.53;100259.28;3420080;79;20963;-84
2022/06/01 11:51:48;;;;;;;3.02;2.50;;;;;;;23.84;52.82;100255.94;3395089;80;21000;-82
2022/06/01 11:57:01;;;;;;;4.10;2.80;;;;;;;24.01;53.55;100242.34;3427105;80;20963;-83
2022/06/01 12:02:19;;;;;;;2.70;2.50;;;;;;;24.09;52.87;100225.56;3507576;78;20987;-86
2022/06/01 12:07:15;;;;;;;2.20;1.98;;;;;;;24.41;52.75;100211.22;3557020;78;21484;-87
2022/06/01 12:12:09;;;;;;;;;;;;;;;24.80;52.62;100222.19;3568013;78;20969;-87
2022/06/01 12:17:23;;;;;;;4.65;2.20;;;;;;;24.66;49.47;100213.09;3570740;79;21833;-82
2022/06/01 12:28:31;;;;;;;3.40;1.72;;;;;;;22.98;51.25;100215.41;3528967;78;20966;-83
2022/06/01 12:33:23;;;;;;;3.85;1.47;;;;;;;22.22;52.27;100225.98;3567218;78;20985;-82
2022/06/01 12:38:39;;;;;;;2.70;1.85;;;;;;;21.46;53.82;100247.32;3526234;77;21049;-86
2022/06/01 12:43:31;;;;;;;2.35;2.15;;;;;;;20.93;55.92;100266.70;3495885;79;21368;-85
2022/06/01 12:48:23;;;;;;;4.78;2.30;;;;;;;20.52;58.26;100304.52;3494420;77;20964;-82
2022/06/01 12:53:22;;;;;;;2.08;1.95;;;;;;;20.45;57.76;100288.92;3490932;79;21009;-82
2022/06/01 12:58:22;;;;;;;2.42;1.77;;;;;;;21.58;56.76;100267.16;3575412;79;20947;-84
2022/06/01 13:03:14;;;;;;;1.60;1.50;;;;;;;22.18;55.46;100243.77;3516427;77;21051;-83
2022/06/01 13:08:16;;;;;;;4.08;1.80;;;;;;;23.10;53.81;100231.27;3539008;77;21826;-80
2022/06/01 13:13:20;;;;;;;1.32;1.22;;;;;;;23.71;52.75;100232.16;3538981;79;20931;-85
2022/06/01 13:18:21;;;;;;;2.50;1.47;;;;;;;24.02;53.04;100229.45;3537273;78;21092;-84
2022/06/01 13:23:29;;;;;;;1.65;1.40;;;;;;;24.35;52.13;100225.19;3554092;78;21002;-83
2022/06/01 13:28:21;;;;;;;2.17;1.75;;;;;;;24.41;51.76;100219.19;3554171;78;20945;-86
2022/06/01 13:33:27;;;;;;;3.67;1.57;;;;;;;24.59;52.05;100231.61;3468063;78;21478;-86
2022/06/01 13:38:28;;;;;;;1.80;1.27;;;;;;;24.60;51.11;100230.68;3578797;78;20906;-83
2022/06/01 13:43:19;;;;;;;1.47;1.37;;;;;;;24.07;50.03;100222.12;3555278;79;20907;-83
2022/06/01 13:48:27;;;;;;;2.20;1.60;;;;;;;23.05;51.15;100231.92;3523268;78;21006;-81
2022/06/01 13:53:43;;;;;;;3.17;1.72;;;;;;;22.48;51.09;100221.46;3588468;77;21552;-83
2022/06/01 13:58:41;;;;;;;3.02;1.47;;;;;;;21.88;51.90;100233.42;3554448;78;21415;-82
2022/06/01 14:03:54;;;;;;;1.40;1.30;;;;;;;22.78;51.86;100228.15;3537318;78;22849;-81
2022/06/01 14:08:51;;;;;;;1.35;1.00;;;;;;;23.36;51.54;100227.50;3467372;79;20935;-81
2022/06/01 14:13:45;;;;;;;4.47;2.17;;;;;;;23.21;51.13;100221.09;3406265;79;20975;-82
2022/06/01 14:18:36;;;;;;;1.60;1.50;;;;;;;22.47;52.46;100212.66;3491398;80;20918;-82
2022/06/01 14:23:27;;;;;;;1.95;1.50;;;;;;;22.23;53.26;100208.72;3502652;80;21155;-82
2022/06/01 14:28:33;;;;;;;2.30;1.87;;;;;;;22.93;53.50;100212.53;3459214;79;20962;-83
2022/06/01 14:33:21;;;;;;;3.22;2.35;;;;;;;23.29;51.16;100222.54;3496653;80;20923;-82
2022/06/01 14:38:12;;;;;;;2.33;1.30;;;;;;;23.92;50.22;100212.63;3515611;79;21026;-85
2022/06/01 14:43:08;;;;;;;3.87;1.32;;;;;;;24.09;46.31;100216.28;3485660;77;21333;-85
2022/06/01 14:47:59;;;;;;;1.92;1.35;;;;;;;24.12;46.07;100217.47;3489451;78;21054;-82
2022/06/01 14:52:50;;;;;;;4.58;1.55;;;;;;;24.20;44.35;100220.63;3480831;78;20977;-83
2022/06/01 14:57:41;;;;;;;2.83;1.27;;;;;;;24.26;43.42;100219.00;3521639;77;20991;-82
2022/06/01 15:02:32;;;;;;;1.72;1.27;;;;;;;24.33;43.90;100219.09;3510110;77;21528;-83
2022/06/01 15:07:23;;;;;;;1.85;1.00;;;;;;;24.27;41.92;100226.05;3507500;79;21021;-81
2022/06/01 15:12:14;;;;;;;1.90;1.35;;;;;;;23.84;42.06;100233.37;3531938;77;21467;-84
2022/06/01 15:17:14;;;;;;;1.87;1.50;;;;;;;24.04;42.18;100234.21;3548130;77;20982;-85
2022/06/01 15:22:05;;;;;;;1.65;1.40;;;;;;;23.95;40.38;100235.53;3544129;77;20983;-82
2022/06/01 15:26:57;;;;;;;3.45;1.45;;;;;;;24.13;40.57;100237.80;3573621;77;20937;-81
2022/06/01 15:42:11;;;;;;;1.50;1.25;;;;;;;22.36;40.15;100259.91;3515341;78;20998;-85
2022/06/01 15:47:16;;;;;;;1.27;1.17;;;;;;;21.93;39.93;100266.78;3583990;78;20973;-83
2022/06/01 15:52:15;;;;;;;5.85;1.80;;;;;;;21.62;39.28;100274.09;3495376;78;21042;-81
2022/06/01 15:57:06;;;;;;;1.20;1.10;;;;;;;21.36;39.85;100276.75;3543622;78;21006;-83
2022/06/01 16:01:57;;;;;;;2.90;1.05;;;;;;;21.25;39.23;100272.69;3495581;77;22022;-89
2022/06/01 16:06:48;;;;;;;1.90;1.00;;;;;;;21.60;39.04;100273.25;3562133;77;20963;-87
2022/06/01 16:11:40;;;;;;;1.50;1.15;;;;;;;22.18;38.56;100272.05;3530485;79;20977;-86
2022/06/01 16:16:33;;;;;;;1.27;1.27;;;;;;;22.19;36.83;100284.34;3524443;77;20959;-88
2022/06/01 16:21:25;;;;;;;0.98;0.90;;;;;;;21.75;37.45;100293.46;3533147;79;21692;-87
2022/06/01 16:26:17;;;;;;;2.17;1.20;;;;;;;21.53;37.00;100294.23;3503085;79;21034;-84
2022/06/01 16:31:12;;;;;;;3.50;1.52;;;;;;;21.84;37.48;100300.63;3514243;77;20996;-85
2022/06/01 16:36:09;;;;;;;1.90;1.27;;;;;;;22.00;36.57;100311.52;3519423;78;21044;-82
2022/06/01 16:41:00;;;;;;;1.95;1.45;;;;;;;22.01;37.19;100313.22;3541999;78;21001;-82
2022/06/01 16:45:53;;;;;;;4.10;1.98;;;;;;;22.13;37.78;100317.69;3521769;78;21030;-81
2022/06/01 16:50:44;;;;;;;1.60;1.50;;;;;;;22.08;37.59;100321.34;3463425;77;20958;-79
2022/06/01 16:55:37;;;;;;;1.62;1.52;;;;;;;21.98;36.84;100313.36;3496597;79;20932;-79
2022/06/01 17:00:31;;;;;;;3.05;1.77;;;;;;;21.81;37.04;100319.25;3525186;78;20962;-78
2022/06/01 17:05:22;;;;;;;1.72;1.60;;;;;;;21.75;37.41;100327.42;3496880;78;21525;-79
2022/06/01 17:10:15;;;;;;;2.05;1.80;;;;;;;21.67;37.56;100319.73;3494422;79;20957;-79
2022/06/01 17:15:09;;;;;;;1.92;1.50;;;;;;;21.55;38.11;100317.52;3538665;78;21059;-80
2022/06/01 17:20:06;;;;;;;2.27;1.52;;;;;;;21.45;38.19;100331.97;3541716;78;21495;-80
2022/06/01 17:24:57;;;;;;;2.58;2.00;;;;;;;21.25;38.50;100336.14;3528084;78;20978;-79
2022/06/01 17:29:48;;;;;;;1.80;1.40;;;;;;;21.20;39.26;100345.15;3553064;78;20991;-80
2022/06/01 17:34:43;;;;;;;1.98;1.87;;;;;;;21.12;38.65;100340.09;3507874;79;20935;-79
2022/06/01 17:39:35;;;;;;;1.77;1.57;;;;;;;20.98;39.49;100347.59;3500522;78;21856;-78
2022/06/01 17:44:26;;;;;;;3.30;2.00;;;;;;;20.84;39.78;100358.63;3575525;77;21706;-80
2022/06/01 17:49:19;;;;;;;3.45;1.87;;;;;;;20.66;40.20;100350.35;3486508;79;22151;-79
2022/06/01 17:54:11;;;;;;;1.95;1.80;;;;;;;20.45;40.81;100355.79;3526928;79;21403;-79
2022/06/01 17:59:06;;;;;;;1.77;1.67;;;;;;;20.15;41.99;100356.22;3490391;77;21000;-80
2022/06/01 18:03:59;;;;;;;2.60;2.12;;;;;;;19.84;42.25;100359.72;3519123;78;22038;-80
2022/06/01 18:08:50;;;;;;;4.90;2.65;;;;;;;19.58;43.01;100356.41;3551528;79;20994;-80
2022/06/01 18:13:41;;;;;;;4.42;2.60;;;;;;;19.28;43.94;100349.70;3558277;77;20989;-81
2022/06/01 18:18:35;;;;;;;2.60;2.08;;;;;;;19.00;45.40;100359.58;3491129;78;20886;-78
2022/06/01 18:23:26;;;;;;;7.83;2.80;;;;;;;18.64;46.30;100362.58;3550606;78;20973;-82
2022/06/01 18:28:29;;;;;;;3.72;2.20;;;;;;;18.34;47.57;100365.41;3546289;78;21021;-81
2022/06/01 18:33:20;;;;;;;3.42;2.85;;;;;;;18.05;48.07;100362.92;3516490;78;21041;-79
2022/06/01 18:38:14;;;;;;;2.50;2.30;;;;;;;17.74;48.16;100368.70;3563759;78;20904;-80
2022/06/01 18:43:07;;;;;;;3.52;2.30;;;;;;;17.47;49.08;100373.58;3503033;78;20915;-80
2022/06/01 18:47:58;;;;;;;2.40;2.20;;;;;;;17.21;49.78;100375.30;3584343;77;20983;-79
2022/06/01 18:52:51;;;;;;;3.42;2.40;;;;;;;16.98;50.14;100388.78;3517716;79;21027;-78
2022/06/01 18:57:43;;;;;;;3.17;2.77;;;;;;;16.69;50.73;100396.59;3501788;77;20977;-79
2022/06/01 19:02:34;;;;;;;5.12;3.42;;;;;;;16.42;51.36;100410.05;3471667;78;20995;-79
2022/06/01 19:07:25;;;;;;;3.05;2.75;;;;;;;16.23;51.94;100411.58;3511342;79;21109;-80
2022/06/01 19:12:16;;;;;;;3.00;2.80;;;;;;;16.07;52.51;100413.95;3533226;79;21144;-81
2022/06/01 19:17:11;;;;;;;3.20;2.90;;;;;;;15.86;53.06;100413.27;3525315;78;21030;-78
2022/06/01 19:22:07;;;;;;;3.50;3.20;;;;;;;15.71;53.84;100419.49;3546622;78;21252;-79
2022/06/01 19:27:08;;;;;;;4.25;3.33;;;;;;;15.50;54.24;100417.92;3553405;78;20974;-78
2022/06/01 19:32:02;;;;;;;3.55;3.25;;;;;;;15.33;54.88;100419.83;3565684;77;21565;-75
2022/06/01 19:47:14;;;;;;;4.58;3.87;;;;;;;14.80;56.00;100430.59;3578431;78;20994;-80
2022/06/01 19:52:06;;;;;;;3.98;3.58;;;;;;;14.65;56.60;100429.38;3543310;78;21037;-80
2022/06/01 19:56:57;;;;;;;3.33;3.12;;;;;;;14.49;57.22;100430.70;3498659;77;21525;-80
2022/06/01 20:01:48;;;;;;;4.20;3.55;;;;;;;14.38;57.82;100423.34;3489630;78;20976;-80
2022/06/01 20:06:39;;;;;;;4.67;4.28;;;;;;;14.26;57.79;100429.91;3547489;78;20962;-79
2022/06/01 20:16:40;;;;;;;6.10;4.85;;;;;;;13.96;58.69;100423.86;3550111;78;21458;-79
2022/06/01 20:21:31;;;;;;;5.45;4.45;;;;;;;13.80;59.08;100428.23;3582994;77;20945;-76
2022/06/01 20:26:22;;;;;;;5.83;5.22;;;;;;;13.75;59.53;100433.03;3511105;77;21041;-78
2022/06/01 20:31:16;;;;;;;6.00;4.20;;;;;;;13.67;59.75;100432.60;3524706;78;20945;-78
2022/06/01 20:36:13;;;;;;;5.12;4.70;;;;;;;13.58;60.13;100429.99;3551068;78;20848;-78
2022/06/01 20:41:04;;;;;;;5.70;5.10;;;;;;;13.50;60.60;100432.61;3567499;78;25598;-78
2022/06/01 20:45:58;;;;;;;10.20;6.45;;;;;;;13.44;60.93;100439.12;3506367;78;21045;-79
2022/06/01 20:50:49;;;;;;;8.55;5.60;;;;;;;13.30;61.33;100432.53;3480922;78;22294;-81
2022/06/01 20:55:40;;;;;;;7.78;6.10;;;;;;;13.16;61.60;100433.84;3494321;77;20925;-78
2022/06/01 21:00:31;;;;;;;6.50;5.80;;;;;;;13.10;62.03;100436.87;3533015;77;21334;-78
2022/06/01 21:05:22;;;;;;;6.70;5.92;;;;;;;13.07;62.37;100444.69;3521875;78;21039;-79
2022/06/01 21:10:15;;;;;;;7.58;5.87;;;;;;;13.01;62.45;100456.42;3548693;78;20910;-79
2022/06/01 21:15:07;;;;;;;7.30;6.12;;;;;;;12.90;62.87;100458.56;3548375;77;20915;-79
2022/06/01 21:19:58;;;;;;;8.60;6.47;;;;;;;12.80;63.04;100458.08;3464812;78;21133;-79
2022/06/01 21:24:49;;;;;;;6.80;6.12;;;;;;;12.71;63.26;100459.36;3473344;77;20958;-79
2022/06/01 21:29:41;;;;;;;6.92;6.00;;;;;;;12.65;63.47;100457.59;3547277;77;21630;-79
2022/06/01 21:34:32;;;;;;;7.05;5.87;;;;;;;12.57;64.00;100454.07;3520183;77;21425;-78
2022/06/01 21:39:23;;;;;;;7.30;6.47;;;;;;;12.50;63.98;100459.71;3475011;78;20958;-78
2022/06/01 21:44:15;;;;;;;7.42;6.12;;;;;;;12.39;64.21;100460.96;3522146;78;21025;-78
2022/06/01 21:49:06;;;;;;;6.30;5.80;;;;;;;12.28;64.61;100448.72;3562423;77;20994;-78
2022/06/01 21:53:57;;;;;;;7.72;6.90;;;;;;;12.27;65.09;100446.96;3526326;78;20971;-78
2022/06/01 21:58:48;;;;;;;6.45;5.65;;;;;;;12.28;65.07;100448.72;3507138;78;20946;-77
2022/06/01 22:03:39;;;;;;;9.00;6.78;;;;;;;12.15;65.10;100450.38;3501583;78;21128;-77
2022/06/01 22:08:31;;;;;;;7.05;6.35;;;;;;;11.96;65.66;100451.98;3479536;78;21021;-77
2022/06/01 22:13:22;;;;;;;8.40;7.60;;;;;;;11.96;65.66;100451.98;3579280;78;20937;-77
2022/06/01 22:18:13;;;;;;;7.42;6.72;;;;;;;11.88;66.06;100453.65;3482416;78;20926;-77
2022/06/01 22:23:05;;;;;;;7.87;6.15;;;;;;;11.83;66.53;100455.77;3563887;78;20957;-78
2022/06/01 22:27:56;;;;;;;6.85;5.72;;;;;;;11.81;66.52;100469.21;3515054;78;21449;-77
2022/06/01 22:32:47;;;;;;;10.13;6.72;;;;;;;11.79;66.70;100470.94;3566145;78;21139;-77
2022/06/01 22:37:39;;;;;;;7.53;6.47;;;;;;;11.78;67.02;100471.78;3432507;80;21432;-78
2022/06/01 22:42:33;;;;;;;9.15;7.20;;;;;;;11.76;67.46;100477.41;3443628;79;20955;-78
2022/06/01 22:47:30;;;;;;;7.25;6.65;;;;;;;11.79;67.73;100470.94;3389416;81;20973;-78
2022/06/01 22:52:26;;;;;;;7.95;6.97;;;;;;;11.83;67.88;100462.28;3482706;80;21603;-78
2022/06/01 22:57:17;;;;;;;7.17;6.57;;;;;;;11.83;67.99;100446.64;3435231;80;21590;-78
2022/06/01 23:02:08;;;;;;;7.33;6.15;;;;;;;11.87;68.02;100438.86;3455931;80;21135;-78
2022/06/01 23:06:59;;;;;;;7.87;6.58;;;;;;;11.97;68.37;100438.11;3475019;80;21477;-78
2022/06/01 23:11:50;;;;;;;7.47;6.15;;;;;;;11.97;68.47;100452.44;3485232;81;20912;-78
2022/06/01 23:16:42;;;;;;;7.03;6.33;;;;;;;12.00;68.82;100451.13;3445744;80;20932;-78
2022/06/01 23:21:34;;;;;;;7.08;6.30;;;;;;;12.07;69.03;100446.84;3444900;80;21107;-78
2022/06/01 23:26:29;;;;;;;6.85;6.15;;;;;;;12.09;69.00;100444.70;3457962;80;20924;-78
2022/06/01 23:31:31;;;;;;;7.50;6.80;;;;;;;12.14;69.25;100449.52;3450394;80;20952;-78
2022/06/01 23:36:49;;;;;;;6.72;6.08;;;;;;;12.23;69.51;100456.94;3486601;80;20972;-78
2022/06/01 23:41:46;;;;;;;;;;;;;;;12.27;69.80;100445.66;3495863;80;20951;-79
2022/06/01 23:47:17;;;;;;;6.58;5.47;;;;;;;12.31;70.01;100466.99;3463295;80;21331;-79
2022/06/01 23:52:50;;;;;;;7.42;6.62;;;;;;;12.33;70.28;100484.81;3486708;80;20983;-78
2022/06/01 23:57:55;;;;;;;6.28;5.72;;;;;;;12.34;70.45;100490.45;3455919;80;20948;-78
